sensor_id;sensor_type;location;lat;lon;timestamp;temperature;humidity
51853;DHT22;37894;53.172;6.598;2023-05-07T00:06:46;11.80;99.90
51853;DHT22;37894;53.172;6.598;2023-05-07T00:16:30;11.80;99.90
51853;DHT22;37894;53.172;6.598;2023-05-07T00:18:55;12.50;99.90
51853;DHT22;37894;53.172;6.598;2023-05-07T00:31:06;11.70;99.90
51853;DHT22;37894;53.172;6.598;2023-05-07T00:48:12;11.40;99.90
51853;DHT22;37894;53.172;6.598;2023-05-07T01:00:24;11.30;99.90
51853;DHT22;37894;53.172;6.598;2023-05-07T01:05:18;11.20;99.90
51853;DHT22;37894;53.172;6.598;2023-05-07T01:07:45;11.20;99.90
51853;DHT22;37894;53.172;6.598;2023-05-07T01:12:39;11.10;99.90
51853;DHT22;37894;53.172;6.598;2023-05-07T01:15:07;11.10;99.90
51853;DHT22;37894;53.172;6.598;2023-05-07T01:17:38;11.20;99.90
51853;DHT22;37894;53.172;6.598;2023-05-07T01:20:05;11.10;99.90
51853;DHT22;37894;53.172;6.598;2023-05-07T01:22:38;11.10;99.90
51853;DHT22;37894;53.172;6.598;2023-05-07T01:25:07;10.90;99.90
51853;DHT22;37894;53.172;6.598;2023-05-07T01:32:47;11.10;99.90
51853;DHT22;37894;53.172;6.598;2023-05-07T01:35:18;11.00;99.90
51853;DHT22;37894;53.172;6.598;2023-05-07T01:37:48;11.00;99.90
51853;DHT22;37894;53.172;6.598;2023-05-07T01:42:43;11.00;99.90
51853;DHT22;37894;53.172;6.598;2023-05-07T01:47:37;10.90;99.90
51853;DHT22;37894;53.172;6.598;2023-05-07T01:50:06;11.10;99.90
51853;DHT22;37894;53.172;6.598;2023-05-07T01:52:34;10.90;99.90
51853;DHT22;37894;53.172;6.598;2023-05-07T02:09:36;10.80;99.90
51853;DHT22;37894;53.172;6.598;2023-05-07T02:12:02;10.80;99.90
51853;DHT22;37894;53.172;6.598;2023-05-07T02:14:28;10.90;99.90
51853;DHT22;37894;53.172;6.598;2023-05-07T02:19:26;10.70;99.90
51853;DHT22;37894;53.172;6.598;2023-05-07T02:26:46;10.40;99.90
51853;DHT22;37894;53.172;6.598;2023-05-07T02:36:31;10.50;99.90
51853;DHT22;37894;53.172;6.598;2023-05-07T02:56:00;10.60;99.90
51853;DHT22;37894;53.172;6.598;2023-05-07T03:00:53;10.60;99.90
51853;DHT22;37894;53.172;6.598;2023-05-07T03:30:08;10.50;99.90
51853;DHT22;37894;53.172;6.598;2023-05-07T03:32:34;10.70;99.90
51853;DHT22;37894;53.172;6.598;2023-05-07T03:42:20;10.20;99.90
51853;DHT22;37894;53.172;6.598;2023-05-07T03:56:57;10.20;99.90
51853;DHT22;37894;53.172;6.598;2023-05-07T04:01:49;10.10;99.90
51853;DHT22;37894;53.172;6.598;2023-05-07T04:09:07;10.10;99.90
51853;DHT22;37894;53.172;6.598;2023-05-07T04:21:20;10.10;99.90
51853;DHT22;37894;53.172;6.598;2023-05-07T04:23:47;10.20;99.90
51853;DHT22;37894;53.172;6.598;2023-05-07T04:36:01;10.20;99.90
51853;DHT22;37894;53.172;6.598;2023-05-07T04:45:52;10.20;99.90
51853;DHT22;37894;53.172;6.598;2023-05-07T04:50:51;9.90;99.90
51853;DHT22;37894;53.172;6.598;2023-05-07T04:53:17;10.50;99.90
51853;DHT22;37894;53.172;6.598;2023-05-07T05:03:02;10.00;99.90
51853;DHT22;37894;53.172;6.598;2023-05-07T05:05:28;9.80;99.90
51853;DHT22;37894;53.172;6.598;2023-05-07T05:10:20;10.30;99.90
51853;DHT22;37894;53.172;6.598;2023-05-07T05:17:41;10.10;99.90
51853;DHT22;37894;53.172;6.598;2023-05-07T05:20:06;10.20;99.90
51853;DHT22;37894;53.172;6.598;2023-05-07T05:25:15;10.20;99.90
51853;DHT22;37894;53.172;6.598;2023-05-07T05:28:13;10.10;99.90
51853;DHT22;37894;53.172;6.598;2023-05-07T05:30:42;10.10;99.90
51853;DHT22;37894;53.172;6.598;2023-05-07T05:33:13;10.10;99.90
51853;DHT22;37894;53.172;6.598;2023-05-07T05:45:47;10.20;99.90
51853;DHT22;37894;53.172;6.598;2023-05-07T05:55:31;9.70;99.90
51853;DHT22;37894;53.172;6.598;2023-05-07T06:05:17;10.10;99.90
51853;DHT22;37894;53.172;6.598;2023-05-07T06:10:08;11.00;99.90
51853;DHT22;37894;53.172;6.598;2023-05-07T06:15:00;10.30;99.90
51853;DHT22;37894;53.172;6.598;2023-05-07T06:19:53;11.00;99.90
51853;DHT22;37894;53.172;6.598;2023-05-07T06:24:44;10.20;99.90
51853;DHT22;37894;53.172;6.598;2023-05-07T06:29:37;10.90;99.90
51853;DHT22;37894;53.172;6.598;2023-05-07T06:32:11;10.30;99.90
51853;DHT22;37894;53.172;6.598;2023-05-07T06:39:29;10.80;99.90
51853;DHT22;37894;53.172;6.598;2023-05-07T06:46:47;10.60;99.90
51853;DHT22;37894;53.172;6.598;2023-05-07T06:49:13;10.40;99.90
51853;DHT22;37894;53.172;6.598;2023-05-07T06:51:39;10.50;99.90
51853;DHT22;37894;53.172;6.598;2023-05-07T06:56:33;10.40;99.90
51853;DHT22;37894;53.172;6.598;2023-05-07T06:59:00;10.40;99.90
51853;DHT22;37894;53.172;6.598;2023-05-07T07:16:09;10.50;99.90
51853;DHT22;37894;53.172;6.598;2023-05-07T07:28:21;10.60;99.90
51853;DHT22;37894;53.172;6.598;2023-05-07T07:38:36;10.50;99.90
51853;DHT22;37894;53.172;6.598;2023-05-07T07:41:02;10.70;99.90
51853;DHT22;37894;53.172;6.598;2023-05-07T07:43:27;11.20;99.90
51853;DHT22;37894;53.172;6.598;2023-05-07T07:45:53;10.90;99.90
51853;DHT22;37894;53.172;6.598;2023-05-07T07:48:19;10.60;99.90
51853;DHT22;37894;53.172;6.598;2023-05-07T07:50:45;11.10;99.90
51853;DHT22;37894;53.172;6.598;2023-05-07T07:53:13;10.20;99.90
51853;DHT22;37894;53.172;6.598;2023-05-07T07:55:39;10.80;99.90
51853;DHT22;37894;53.172;6.598;2023-05-07T07:58:05;11.00;99.90
51853;DHT22;37894;53.172;6.598;2023-05-07T08:00:31;11.60;99.90
51853;DHT22;37894;53.172;6.598;2023-05-07T08:02:57;11.80;99.90
51853;DHT22;37894;53.172;6.598;2023-05-07T08:05:23;11.20;99.90
51853;DHT22;37894;53.172;6.598;2023-05-07T08:07:48;11.30;99.90
51853;DHT22;37894;53.172;6.598;2023-05-07T08:10:17;11.60;99.90
51853;DHT22;37894;53.172;6.598;2023-05-07T08:12:50;11.10;99.90
51853;DHT22;37894;53.172;6.598;2023-05-07T08:15:16;11.80;99.90
51853;DHT22;37894;53.172;6.598;2023-05-07T08:17:42;11.60;99.90
51853;DHT22;37894;53.172;6.598;2023-05-07T08:20:08;11.30;99.90
51853;DHT22;37894;53.172;6.598;2023-05-07T08:22:37;12.40;99.90
51853;DHT22;37894;53.172;6.598;2023-05-07T08:25:03;11.80;99.90
51853;DHT22;37894;53.172;6.598;2023-05-07T08:27:29;11.80;99.90
51853;DHT22;37894;53.172;6.598;2023-05-07T08:29:55;11.60;99.90
51853;DHT22;37894;53.172;6.598;2023-05-07T08:32:21;11.80;99.90
51853;DHT22;37894;53.172;6.598;2023-05-07T08:34:47;11.90;99.90
51853;DHT22;37894;53.172;6.598;2023-05-07T08:37:13;11.90;99.90
51853;DHT22;37894;53.172;6.598;2023-05-07T08:39:39;12.20;99.90
51853;DHT22;37894;53.172;6.598;2023-05-07T08:42:05;11.30;99.90
51853;DHT22;37894;53.172;6.598;2023-05-07T08:44:33;12.10;99.90
51853;DHT22;37894;53.172;6.598;2023-05-07T08:47:01;11.80;99.90
51853;DHT22;37894;53.172;6.598;2023-05-07T08:49:28;12.40;99.90
51853;DHT22;37894;53.172;6.598;2023-05-07T08:51:54;12.10;99.90
51853;DHT22;37894;53.172;6.598;2023-05-07T08:54:21;12.10;99.90
51853;DHT22;37894;53.172;6.598;2023-05-07T08:56:46;12.40;99.90
51853;DHT22;37894;53.172;6.598;2023-05-07T08:59:13;12.30;99.90
51853;DHT22;37894;53.172;6.598;2023-05-07T09:04:05;12.10;99.90
51853;DHT22;37894;53.172;6.598;2023-05-07T09:06:32;12.60;99.90
51853;DHT22;37894;53.172;6.598;2023-05-07T09:08:58;12.80;99.90
51853;DHT22;37894;53.172;6.598;2023-05-07T09:11:27;13.00;99.90
51853;DHT22;37894;53.172;6.598;2023-05-07T09:13:56;12.70;99.90
51853;DHT22;37894;53.172;6.598;2023-05-07T09:16:23;12.20;99.90
51853;DHT22;37894;53.172;6.598;2023-05-07T09:18:53;12.90;99.90
51853;DHT22;37894;53.172;6.598;2023-05-07T09:21:20;12.80;99.90
51853;DHT22;37894;53.172;6.598;2023-05-07T09:23:51;13.40;99.90
51853;DHT22;37894;53.172;6.598;2023-05-07T09:26:17;13.20;99.90
51853;DHT22;37894;53.172;6.598;2023-05-07T09:28:44;13.10;99.90
51853;DHT22;37894;53.172;6.598;2023-05-07T09:31:11;13.10;99.90
51853;DHT22;37894;53.172;6.598;2023-05-07T09:33:37;12.50;99.90
51853;DHT22;37894;53.172;6.598;2023-05-07T09:36:04;13.20;99.90
51853;DHT22;37894;53.172;6.598;2023-05-07T09:38:32;13.50;99.90
51853;DHT22;37894;53.172;6.598;2023-05-07T09:41:11;13.40;99.90
51853;DHT22;37894;53.172;6.598;2023-05-07T09:43:39;13.30;99.90
51853;DHT22;37894;53.172;6.598;2023-05-07T09:46:12;13.40;99.90
51853;DHT22;37894;53.172;6.598;2023-05-07T09:48:39;13.40;99.90
51853;DHT22;37894;53.172;6.598;2023-05-07T09:51:11;13.10;99.90
51853;DHT22;37894;53.172;6.598;2023-05-07T09:53:41;13.40;99.90
51853;DHT22;37894;53.172;6.598;2023-05-07T09:56:07;13.80;99.90
51853;DHT22;37894;53.172;6.598;2023-05-07T09:58:36;13.40;99.90
51853;DHT22;37894;53.172;6.598;2023-05-07T10:01:02;13.60;99.90
51853;DHT22;37894;53.172;6.598;2023-05-07T10:03:29;13.60;99.90
51853;DHT22;37894;53.172;6.598;2023-05-07T10:05:58;13.60;99.90
51853;DHT22;37894;53.172;6.598;2023-05-07T10:08:24;13.70;99.90
51853;DHT22;37894;53.172;6.598;2023-05-07T10:10:50;13.80;99.90
51853;DHT22;37894;53.172;6.598;2023-05-07T10:13:17;13.40;99.90
51853;DHT22;37894;53.172;6.598;2023-05-07T10:15:44;13.90;99.90
51853;DHT22;37894;53.172;6.598;2023-05-07T10:18:12;13.70;99.90
51853;DHT22;37894;53.172;6.598;2023-05-07T10:20:39;13.80;99.90
51853;DHT22;37894;53.172;6.598;2023-05-07T10:23:06;13.70;99.90
51853;DHT22;37894;53.172;6.598;2023-05-07T10:25:32;13.90;99.90
51853;DHT22;37894;53.172;6.598;2023-05-07T10:28:03;13.90;99.90
51853;DHT22;37894;53.172;6.598;2023-05-07T10:33:10;14.00;99.90
51853;DHT22;37894;53.172;6.598;2023-05-07T10:35:41;14.10;99.90
51853;DHT22;37894;53.172;6.598;2023-05-07T10:38:08;14.10;99.90
51853;DHT22;37894;53.172;6.598;2023-05-07T10:40:34;14.10;99.90
51853;DHT22;37894;53.172;6.598;2023-05-07T10:43:02;14.20;99.90
51853;DHT22;37894;53.172;6.598;2023-05-07T10:45:31;14.20;99.90
51853;DHT22;37894;53.172;6.598;2023-05-07T10:48:16;14.30;99.90
51853;DHT22;37894;53.172;6.598;2023-05-07T10:50:44;14.40;99.90
51853;DHT22;37894;53.172;6.598;2023-05-07T10:53:20;14.60;99.90
51853;DHT22;37894;53.172;6.598;2023-05-07T10:55:47;14.70;99.90
51853;DHT22;37894;53.172;6.598;2023-05-07T10:58:27;14.90;99.90
51853;DHT22;37894;53.172;6.598;2023-05-07T11:01:00;15.10;99.90
51853;DHT22;37894;53.172;6.598;2023-05-07T11:03:27;15.50;99.90
51853;DHT22;37894;53.172;6.598;2023-05-07T11:06:13;16.30;99.90
51853;DHT22;37894;53.172;6.598;2023-05-07T11:08:58;15.40;99.90
51853;DHT22;37894;53.172;6.598;2023-05-07T11:11:49;15.30;99.90
51853;DHT22;37894;53.172;6.598;2023-05-07T11:17:07;15.60;99.90
51853;DHT22;37894;53.172;6.598;2023-05-07T11:19:52;15.60;99.90
51853;DHT22;37894;53.172;6.598;2023-05-07T11:25:02;15.70;99.90
51853;DHT22;37894;53.172;6.598;2023-05-07T11:27:29;15.90;99.90
51853;DHT22;37894;53.172;6.598;2023-05-07T11:29:55;15.90;99.90
51853;DHT22;37894;53.172;6.598;2023-05-07T11:32:29;16.10;99.90
51853;DHT22;37894;53.172;6.598;2023-05-07T11:34:56;16.20;99.90
51853;DHT22;37894;53.172;6.598;2023-05-07T11:37:23;16.20;99.90
51853;DHT22;37894;53.172;6.598;2023-05-07T11:39:49;17.40;99.90
51853;DHT22;37894;53.172;6.598;2023-05-07T11:42:34;16.30;99.90
51853;DHT22;37894;53.172;6.598;2023-05-07T11:45:01;16.40;99.90
51853;DHT22;37894;53.172;6.598;2023-05-07T11:47:30;16.30;99.90
51853;DHT22;37894;53.172;6.598;2023-05-07T11:49:56;16.40;99.90
51853;DHT22;37894;53.172;6.598;2023-05-07T11:52:23;16.50;99.90
51853;DHT22;37894;53.172;6.598;2023-05-07T11:54:53;16.70;99.90
51853;DHT22;37894;53.172;6.598;2023-05-07T11:57:20;17.00;99.90
51853;DHT22;37894;53.172;6.598;2023-05-07T11:59:47;17.20;99.90
51853;DHT22;37894;53.172;6.598;2023-05-07T12:02:14;17.30;99.90
51853;DHT22;37894;53.172;6.598;2023-05-07T12:04:40;17.50;99.90
51853;DHT22;37894;53.172;6.598;2023-05-07T12:07:12;17.60;99.90
51853;DHT22;37894;53.172;6.598;2023-05-07T12:09:39;17.70;99.90
51853;DHT22;37894;53.172;6.598;2023-05-07T12:12:05;17.70;99.90
51853;DHT22;37894;53.172;6.598;2023-05-07T12:14:31;17.90;99.90
51853;DHT22;37894;53.172;6.598;2023-05-07T12:16:59;18.10;99.90
51853;DHT22;37894;53.172;6.598;2023-05-07T12:19:31;18.10;99.90
51853;DHT22;37894;53.172;6.598;2023-05-07T12:21:57;18.00;99.90
51853;DHT22;37894;53.172;6.598;2023-05-07T12:24:23;18.00;99.90
51853;DHT22;37894;53.172;6.598;2023-05-07T12:26:49;18.00;99.90
51853;DHT22;37894;53.172;6.598;2023-05-07T12:29:15;17.90;99.90
51853;DHT22;37894;53.172;6.598;2023-05-07T12:31:43;18.10;99.90
51853;DHT22;37894;53.172;6.598;2023-05-07T12:34:12;18.10;99.90
51853;DHT22;37894;53.172;6.598;2023-05-07T12:36:39;18.10;99.90
51853;DHT22;37894;53.172;6.598;2023-05-07T12:39:06;18.10;99.90
51853;DHT22;37894;53.172;6.598;2023-05-07T12:44:19;18.20;99.90
51853;DHT22;37894;53.172;6.598;2023-05-07T12:46:46;18.10;99.90
51853;DHT22;37894;53.172;6.598;2023-05-07T12:49:12;18.80;99.90
51853;DHT22;37894;53.172;6.598;2023-05-07T12:51:38;18.70;99.90
51853;DHT22;37894;53.172;6.598;2023-05-07T12:54:03;18.80;99.90
51853;DHT22;37894;53.172;6.598;2023-05-07T12:56:36;18.90;99.90
51853;DHT22;37894;53.172;6.598;2023-05-07T12:59:02;18.80;99.90
51853;DHT22;37894;53.172;6.598;2023-05-07T13:01:31;18.80;99.90
51853;DHT22;37894;53.172;6.598;2023-05-07T13:04:05;18.90;99.90
51853;DHT22;37894;53.172;6.598;2023-05-07T13:06:31;19.00;99.90
51853;DHT22;37894;53.172;6.598;2023-05-07T13:08:57;19.20;99.90
51853;DHT22;37894;53.172;6.598;2023-05-07T13:11:23;19.40;99.90
51853;DHT22;37894;53.172;6.598;2023-05-07T13:13:48;19.40;99.90
51853;DHT22;37894;53.172;6.598;2023-05-07T13:16:14;19.60;99.90
51853;DHT22;37894;53.172;6.598;2023-05-07T13:18:40;19.50;99.90
51853;DHT22;37894;53.172;6.598;2023-05-07T13:21:06;19.80;99.90
51853;DHT22;37894;53.172;6.598;2023-05-07T13:23:33;20.00;99.90
51853;DHT22;37894;53.172;6.598;2023-05-07T13:25:59;20.00;99.90
51853;DHT22;37894;53.172;6.598;2023-05-07T13:28:25;20.50;99.90
51853;DHT22;37894;53.172;6.598;2023-05-07T13:30:53;20.10;99.90
51853;DHT22;37894;53.172;6.598;2023-05-07T13:33:19;20.30;99.90
51853;DHT22;37894;53.172;6.598;2023-05-07T13:35:45;20.50;99.90
51853;DHT22;37894;53.172;6.598;2023-05-07T13:38:11;20.50;99.90
51853;DHT22;37894;53.172;6.598;2023-05-07T13:40:36;20.80;99.90
51853;DHT22;37894;53.172;6.598;2023-05-07T13:43:02;21.10;99.90
51853;DHT22;37894;53.172;6.598;2023-05-07T13:48:05;21.30;99.90
51853;DHT22;37894;53.172;6.598;2023-05-07T13:50:31;21.10;99.90
51853;DHT22;37894;53.172;6.598;2023-05-07T13:52:56;21.20;99.90
51853;DHT22;37894;53.172;6.598;2023-05-07T13:55:24;21.20;99.90
51853;DHT22;37894;53.172;6.598;2023-05-07T13:57:57;21.10;99.90
51853;DHT22;37894;53.172;6.598;2023-05-07T14:00:24;21.10;99.90
51853;DHT22;37894;53.172;6.598;2023-05-07T14:05:16;21.30;99.90
51853;DHT22;37894;53.172;6.598;2023-05-07T14:07:42;21.50;99.90
51853;DHT22;37894;53.172;6.598;2023-05-07T14:10:07;21.20;99.90
51853;DHT22;37894;53.172;6.598;2023-05-07T14:19:53;19.60;99.90
51853;DHT22;37894;53.172;6.598;2023-05-07T14:27:16;19.10;99.90
51853;DHT22;37894;53.172;6.598;2023-05-07T14:51:46;18.20;99.90
51853;DHT22;37894;53.172;6.598;2023-05-07T14:54:15;18.40;99.90
51853;DHT22;37894;53.172;6.598;2023-05-07T15:01:37;17.90;99.90
51853;DHT22;37894;53.172;6.598;2023-05-07T15:04:03;18.40;99.90
51853;DHT22;37894;53.172;6.598;2023-05-07T15:13:49;18.50;99.90
51853;DHT22;37894;53.172;6.598;2023-05-07T15:30:54;18.60;99.90
51853;DHT22;37894;53.172;6.598;2023-05-07T15:43:09;18.40;99.90
51853;DHT22;37894;53.172;6.598;2023-05-07T15:45:42;18.40;99.90
51853;DHT22;37894;53.172;6.598;2023-05-07T15:48:09;18.40;99.90
51853;DHT22;37894;53.172;6.598;2023-05-07T15:53:03;18.30;99.90
51853;DHT22;37894;53.172;6.598;2023-05-07T15:55:30;18.30;99.90
51853;DHT22;37894;53.172;6.598;2023-05-07T16:00:25;18.30;99.90
51853;DHT22;37894;53.172;6.598;2023-05-07T16:15:06;17.90;99.90
51853;DHT22;37894;53.172;6.598;2023-05-07T17:55:07;16.50;99.90
51853;DHT22;37894;53.172;6.598;2023-05-07T18:00:05;16.30;99.90
51853;DHT22;37894;53.172;6.598;2023-05-07T18:09:51;16.20;99.90
51853;DHT22;37894;53.172;6.598;2023-05-07T18:22:02;15.80;99.90
51853;DHT22;37894;53.172;6.598;2023-05-07T19:28:29;14.50;99.90
51853;DHT22;37894;53.172;6.598;2023-05-07T19:31:29;14.50;99.90
51853;DHT22;37894;53.172;6.598;2023-05-07T19:58:46;14.00;99.90
51853;DHT22;37894;53.172;6.598;2023-05-07T20:01:12;14.80;99.90
51853;DHT22;37894;53.172;6.598;2023-05-07T20:03:38;14.10;99.90
51853;DHT22;37894;53.172;6.598;2023-05-07T20:06:04;13.20;99.90
51853;DHT22;37894;53.172;6.598;2023-05-07T20:08:30;13.50;99.90
51853;DHT22;37894;53.172;6.598;2023-05-07T20:10:57;14.20;99.90
51853;DHT22;37894;53.172;6.598;2023-05-07T20:13:24;14.00;99.90
51853;DHT22;37894;53.172;6.598;2023-05-07T20:15:55;14.00;99.90
51853;DHT22;37894;53.172;6.598;2023-05-07T20:18:21;14.60;99.90
51853;DHT22;37894;53.172;6.598;2023-05-07T20:20:47;13.80;99.90
51853;DHT22;37894;53.172;6.598;2023-05-07T20:23:12;12.80;99.90
51853;DHT22;37894;53.172;6.598;2023-05-07T20:25:39;13.50;99.90
51853;DHT22;37894;53.172;6.598;2023-05-07T20:30:32;13.70;99.90
51853;DHT22;37894;53.172;6.598;2023-05-07T20:32:58;13.60;99.90
51853;DHT22;37894;53.172;6.598;2023-05-07T20:35:24;13.30;99.90
51853;DHT22;37894;53.172;6.598;2023-05-07T20:40:15;13.30;99.90
51853;DHT22;37894;53.172;6.598;2023-05-07T20:42:41;13.60;99.90
51853;DHT22;37894;53.172;6.598;2023-05-07T20:45:08;13.50;99.90
51853;DHT22;37894;53.172;6.598;2023-05-07T20:47:34;13.50;99.90
51853;DHT22;37894;53.172;6.598;2023-05-07T20:50:00;13.30;99.90
51853;DHT22;37894;53.172;6.598;2023-05-07T20:54:52;13.30;99.90
51853;DHT22;37894;53.172;6.598;2023-05-07T20:57:18;13.90;99.90
51853;DHT22;37894;53.172;6.598;2023-05-07T20:59:44;12.40;99.90
51853;DHT22;37894;53.172;6.598;2023-05-07T21:02:10;12.70;99.90
51853;DHT22;37894;53.172;6.598;2023-05-07T21:04:35;13.20;99.90
51853;DHT22;37894;53.172;6.598;2023-05-07T21:07:01;13.20;99.90
51853;DHT22;37894;53.172;6.598;2023-05-07T21:09:27;13.10;99.90
51853;DHT22;37894;53.172;6.598;2023-05-07T21:11:53;13.20;99.90
51853;DHT22;37894;53.172;6.598;2023-05-07T21:14:19;13.10;99.90
51853;DHT22;37894;53.172;6.598;2023-05-07T21:16:45;13.30;99.90
51853;DHT22;37894;53.172;6.598;2023-05-07T21:19:11;13.00;99.90
51853;DHT22;37894;53.172;6.598;2023-05-07T21:21:37;12.70;99.90
51853;DHT22;37894;53.172;6.598;2023-05-07T21:24:03;13.20;99.90
51853;DHT22;37894;53.172;6.598;2023-05-07T21:28:55;13.10;99.90
51853;DHT22;37894;53.172;6.598;2023-05-07T21:31:21;12.50;99.90
51853;DHT22;37894;53.172;6.598;2023-05-07T21:33:47;12.80;99.90
51853;DHT22;37894;53.172;6.598;2023-05-07T21:38:39;12.60;99.90
51853;DHT22;37894;53.172;6.598;2023-05-07T21:41:05;13.10;99.90
51853;DHT22;37894;53.172;6.598;2023-05-07T21:43:30;12.30;99.90
51853;DHT22;37894;53.172;6.598;2023-05-07T21:45:56;12.00;99.90
51853;DHT22;37894;53.172;6.598;2023-05-07T21:48:25;12.70;99.90
51853;DHT22;37894;53.172;6.598;2023-05-07T21:51:04;12.30;99.90
51853;DHT22;37894;53.172;6.598;2023-05-07T21:55:57;12.90;99.90
51853;DHT22;37894;53.172;6.598;2023-05-07T21:58:25;12.30;99.90
51853;DHT22;37894;53.172;6.598;2023-05-07T22:00:51;12.00;99.90
51853;DHT22;37894;53.172;6.598;2023-05-07T22:05:43;12.30;99.90
51853;DHT22;37894;53.172;6.598;2023-05-07T22:10:36;12.20;99.90
51853;DHT22;37894;53.172;6.598;2023-05-07T22:13:02;12.20;99.90
51853;DHT22;37894;53.172;6.598;2023-05-07T22:15:28;11.50;99.90
51853;DHT22;37894;53.172;6.598;2023-05-07T22:17:54;11.60;99.90
51853;DHT22;37894;53.172;6.598;2023-05-07T22:20:19;12.60;99.90
51853;DHT22;37894;53.172;6.598;2023-05-07T22:27:38;12.20;99.90
51853;DHT22;37894;53.172;6.598;2023-05-07T22:30:04;11.70;99.90
51853;DHT22;37894;53.172;6.598;2023-05-07T22:32:30;12.90;99.90
51853;DHT22;37894;53.172;6.598;2023-05-07T22:34:55;12.80;99.90
51853;DHT22;37894;53.172;6.598;2023-05-07T22:37:21;11.90;99.90
51853;DHT22;37894;53.172;6.598;2023-05-07T22:39:47;11.50;99.90
51853;DHT22;37894;53.172;6.598;2023-05-07T22:42:12;12.10;99.90
51853;DHT22;37894;53.172;6.598;2023-05-07T22:44:38;11.70;99.90
51853;DHT22;37894;53.172;6.598;2023-05-07T22:47:04;12.00;99.90
51853;DHT22;37894;53.172;6.598;2023-05-07T22:54:21;11.70;99.90
51853;DHT22;37894;53.172;6.598;2023-05-07T22:56:47;11.50;99.90
51853;DHT22;37894;53.172;6.598;2023-05-07T22:59:14;11.90;99.90
51853;DHT22;37894;53.172;6.598;2023-05-07T23:01:39;12.20;99.90
51853;DHT22;37894;53.172;6.598;2023-05-07T23:04:05;11.60;99.90
51853;DHT22;37894;53.172;6.598;2023-05-07T23:06:31;11.90;99.90
51853;DHT22;37894;53.172;6.598;2023-05-07T23:11:23;11.70;99.90
51853;DHT22;37894;53.172;6.598;2023-05-07T23:13:49;11.60;99.90
51853;DHT22;37894;53.172;6.598;2023-05-07T23:16:14;11.60;99.90
51853;DHT22;37894;53.172;6.598;2023-05-07T23:18:40;11.50;99.90
51853;DHT22;37894;53.172;6.598;2023-05-07T23:21:06;10.70;99.90
51853;DHT22;37894;53.172;6.598;2023-05-07T23:23:33;11.10;99.90
51853;DHT22;37894;53.172;6.598;2023-05-07T23:25:59;11.60;99.90
51853;DHT22;37894;53.172;6.598;2023-05-07T23:30:51;11.50;99.90
51853;DHT22;37894;53.172;6.598;2023-05-07T23:33:17;11.90;99.90
51853;DHT22;37894;53.172;6.598;2023-05-07T23:38:08;11.40;99.90
51853;DHT22;37894;53.172;6.598;2023-05-07T23:43:00;11.10;99.90
51853;DHT22;37894;53.172;6.598;2023-05-07T23:45:26;11.30;99.90
51853;DHT22;37894;53.172;6.598;2023-05-07T23:52:44;11.10;99.90
51853;DHT22;37894;53.172;6.598;2023-05-07T23:57:35;11.50;99.90
